Latest Weather Observations for Spitfire Channel

IDQ60801

Issued at 3:35 am EST Saturday 1 November 2014 (issued every 30 minutes, with the page automatically refreshed every 10 minutes)

About weather observations | Map of weather stations | Latest weather observations for QLD | Other Formats
Station Details ID: 040927 Name: SPITFIRE CHANNEL BEACON Lat: -27.05 Lon: 153.27 Height: 7.0 m
Data from the previous 72 hours. | See also: Recent months for locations in Queensland
Date/Time
EST
Temp
°C
App
Temp
°C
Dew
Point
Rel
Hum
%
Delta-T
°C
Wind Press
QNH
hPa
Press
MSL
hPa
Rain
since 9 am
mm
Dir
 
Spd
km/h
Gust
km/h
Spd
kts
Gust
kts
01/03:30am - - - - - NNW 30 35 16 19 - - -
01/03:00am - - - - - NNW 28 35 15 19 - - -
01/02:30am - - - - - NNW 32 35 17 19 - - -
01/02:00am - - - - - NNW 33 39 18 21 - - -
01/01:30am - - - - - NNW 33 41 18 22 - - -
01/01:00am - - - - - NNW 32 39 17 21 - - -
01/12:30am - - - - - NNW 33 39 18 21 - - -
01/12:00am - - - - - N 33 39 18 21 - - -
 
Date/Time
EST
Temp
°C
App
Temp
°C
Dew
Point
Rel
Hum
%
Delta-T
°C
Wind Press
QNH
hPa
Press
MSL
hPa
Rain
since 9 am
mm
Dir
 
Spd
km/h
Gust
km/h
Spd
kts
Gust
kts
31/11:30pm - - - - - N 33 41 18 22 - - -
31/11:00pm - - - - - N 33 41 18 22 - - -
31/10:30pm - - - - - N 33 39 18 21 - - -
31/10:00pm - - - - - N 33 41 18 22 - - -
31/09:30pm - - - - - N 32 41 17 22 - - -
31/09:00pm - - - - - N 33 41 18 22 - - -
31/08:30pm - - - - - N 33 39 18 21 - - -
31/08:00pm - - - - - N 35 43 19 23 - - -
31/07:30pm - - - - - N 33 43 18 23 - - -
31/07:00pm - - - - - N 35 41 19 22 - - -
31/06:30pm - - - - - N 32 41 17 22 - - -
31/06:00pm - - - - - N 33 41 18 22 - - -
31/05:30pm - - - - - N 33 39 18 21 - - -
31/05:00pm - - - - - N 32 37 17 20 - - -
31/04:30pm - - - - - N 30 33 16 18 - - -
31/04:00pm - - - - - N 30 35 16 19 - - -
31/03:30pm - - - - - N 28 35 15 19 - - -
31/03:00pm - - - - - N 32 35 17 19 - - -
31/02:30pm - - - - - N 28 33 15 18 - - -
31/02:00pm - - - - - NNE 28 32 15 17 - - -
31/01:30pm - - - - - N 24 28 13 15 - - -
31/01:00pm - - - - - NNE 20 24 11 13 - - -
31/12:30pm - - - - - NNE 20 24 11 13 - - -
31/12:00pm - - - - - NNE 20 22 11 12 - - -
31/11:30am - - - - - NNE 19 20 10 11 - - -
31/11:00am - - - - - NNE 15 17 8 9 - - -
31/10:30am - - - - - N 11 13 6 7 - - -
31/10:00am - - - - - N 13 17 7 9 - - -
31/09:30am - - - - - N 13 15 7 8 - - -
31/09:00am - - - - - N 11 13 6 7 - - -
31/08:30am - - - - - N 11 13 6 7 - - -
31/08:00am - - - - - N 11 15 6 8 - - -
31/07:30am - - - - - N 11 13 6 7 - - -
31/07:00am - - - - - N 9 11 5 6 - - -
31/06:30am - - - - - N 11 13 6 7 - - -
31/06:00am - - - - - N 13 15 7 8 - - -
31/05:30am - - - - - N 9 11 5 6 - - -
31/05:00am - - - - - N 9 13 5 7 - - -
31/04:30am - - - - - N 9 11 5 6 - - -
31/04:00am - - - - - N 11 13 6 7 - - -
31/03:30am - - - - - N 11 13 6 7 - - -
31/03:00am - - - - - N 11 15 6 8 - - -
31/02:30am - - - - - N 11 15 6 8 - - -
31/02:00am - - - - - N 11 13 6 7 - - -
31/01:30am - - - - - N 7 11 4 6 - - -
31/01:00am - - - - - N 11 15 6 8 - - -
31/12:30am - - - - - N 15 17 8 9 - - -
31/12:00am - - - - - N 15 17 8 9 - - -
 
Date/Time
EST
Temp
°C
App
Temp
°C
Dew
Point
Rel
Hum
%
Delta-T
°C
Wind Press
QNH
hPa
Press
MSL
hPa
Rain
since 9 am
mm
Dir
 
Spd
km/h
Gust
km/h
Spd
kts
Gust
kts
30/11:30pm - - - - - N 15 19 8 10 - - -
30/11:00pm - - - - - N 17 19 9 10 - - -
30/10:30pm - - - - - N 17 20 9 11 - - -
30/10:00pm - - - - - N 20 24 11 13 - - -
30/09:30pm - - - - - N 20 24 11 13 - - -
30/09:00pm - - - - - N 22 26 12 14 - - -
30/08:30pm - - - - - N 22 28 12 15 - - -
30/08:00pm - - - - - NNE 20 24 11 13 - - -
30/07:30pm - - - - - NNE 22 24 12 13 - - -
30/07:00pm - - - - - NE 22 26 12 14 - - -
30/06:30pm - - - - - NE 24 26 13 14 - - -
30/06:00pm - - - - - NE 22 26 12 14 - - -
30/05:30pm - - - - - NE 24 28 13 15 - - -
30/05:00pm - - - - - NE 26 30 14 16 - - -
30/04:30pm - - - - - NE 26 32 14 17 - - -
30/04:00pm - - - - - NE 26 30 14 16 - - -
30/03:30pm - - - - - NE 26 28 14 15 - - -
30/03:00pm - - - - - NE 26 28 14 15 - - -
30/02:30pm - - - - - NE 24 28 13 15 - - -
30/02:00pm - - - - - NNE 20 24 11 13 - - -
30/01:30pm - - - - - NNE 13 15 7 8 - - -
30/01:00pm - - - - - NE 9 11 5 6 - - -
30/12:30pm - - - - - NE 6 7 3 4 - - -
30/12:00pm - - - - - E 4 6 2 3 - - -
30/11:30am - - - - - SE 4 6 2 3 - - -
30/11:00am - - - - - S 6 7 3 4 - - -
30/10:30am - - - - - S 7 11 4 6 - - -
30/10:00am - - - - - S 11 13 6 7 - - -
30/09:30am - - - - - S 11 13 6 7 - - -
30/09:00am - - - - - S 15 17 8 9 - - -
30/08:30am - - - - - S 17 19 9 10 - - -
30/08:00am - - - - - SSE 11 15 6 8 - - -
30/07:30am - - - - - SE 11 13 6 7 - - -
30/07:00am - - - - - SE 11 15 6 8 - - -
30/06:30am - - - - - SE 13 17 7 9 - - -
30/06:00am - - - - - ESE 13 17 7 9 - - -
30/05:30am - - - - - ESE 15 19 8 10 - - -
30/05:00am - - - - - ESE 17 20 9 11 - - -
30/04:30am - - - - - ESE 19 20 10 11 - - -
30/04:00am - - - - - ESE 19 22 10 12 - - -
30/03:30am - - - - - ESE 20 24 11 13 - - -
30/03:00am - - - - - ESE 19 20 10 11 - - -
30/02:30am - - - - - ESE 19 20 10 11 - - -
30/02:00am - - - - - ESE 17 20 9 11 - - -
30/01:30am - - - - - ESE 15 19 8 10 - - -
30/01:00am - - - - - ESE 15 17 8 9 - - -
30/12:30am - - - - - ESE 15 17 8 9 - - -
30/12:00am - - - - - ESE 15 17 8 9 - - -
 
Date/Time
EST
Temp
°C
App
Temp
°C
Dew
Point
Rel
Hum
%
Delta-T
°C
Wind Press
QNH
hPa
Press
MSL
hPa
Rain
since 9 am
mm
Dir
 
Spd
km/h
Gust
km/h
Spd
kts
Gust
kts
29/11:30pm - - - - - ESE 13 15 7 8 - - -
29/11:00pm - - - - - ESE 15 17 8 9 - - -
29/10:30pm - - - - - ESE 15 19 8 10 - - -
29/10:00pm - - - - - ESE 17 20 9 11 - - -
29/09:30pm - - - - - ESE 17 20 9 11 - - -
29/09:00pm - - - - - ESE 17 20 9 11 - - -
29/08:30pm - - - - - E 19 24 10 13 - - -
29/08:00pm - - - - - E 19 24 10 13 - - -
29/07:30pm - - - - - E 19 24 10 13 - - -
29/07:00pm - - - - - E 17 22 9 12 - - -
29/06:30pm - - - - - E 19 24 10 13 - - -
29/06:00pm - - - - - E 24 32 13 17 - - -
29/05:30pm - - - - - ESE 26 33 14 18 - - -
29/05:00pm - - - - - ESE 32 39 17 21 - - -
29/04:30pm - - - - - ESE 32 37 17 20 - - -
29/04:00pm - - - - - ESE 35 43 19 23 - - -
29/03:30pm - - - - - ESE 33 41 18 22 - - -
29/03:00pm - - - - - ESE 30 35 16 19 - - -
29/02:30pm - - - - - ESE 28 33 15 18 - - -
29/02:00pm - - - - - ESE 30 33 16 18 - - -
29/01:30pm - - - - - ESE 26 32 14 17 - - -
29/01:00pm - - - - - ESE 26 32 14 17 - - -
29/12:30pm - - - - - ESE 19 24 10 13 - - -
29/12:00pm - - - - - SE 19 22 10 12 - - -
29/11:30am - - - - - ESE 22 26 12 14 - - -
29/11:00am - - - - - SSE 13 17 7 9 - - -
29/10:30am - - - - - SSE 13 17 7 9 - - -
29/10:00am - - - - - SSE 20 24 11 13 - - -
29/09:30am - - - - - SSE 20 24 11 13 - - -
29/09:00am - - - - - SSE 19 20 10 11 - - -
29/08:30am - - - - - SSE 19 22 10 12 - - -
29/08:00am - - - - - SSE 17 19 9 10 - - -
29/07:30am - - - - - S 15 17 8 9 - - -
29/07:00am - - - - - S 13 15 7 8 - - -
29/06:30am - - - - - SE 11 13 6 7 - - -
29/06:00am - - - - - SE 13 15 7 8 - - -
29/05:30am - - - - - SE 19 22 10 12 - - -
29/05:00am - - - - - SSE 17 19 9 10 - - -
29/04:30am - - - - - SSE 13 17 7 9 - - -
29/04:00am - - - - - SSE 11 13 6 7 - - -

Other Formats:

Comma delimited format used in spreadsheet applications
http://www.bom.gov.au/fwo/IDQ60801/IDQ60801.94581.axf

JavaScript Object Notation format (JSON) in row-major order
http://www.bom.gov.au/fwo/IDQ60801/IDQ60801.94581.json